Weather at Ayod Airstrip

Public forecast

Using degrees Celsius for public forecast. Weather courtesy of forecast.io.

Closest aviation weather report (METAR) to Ayod Airstrip

Report is more than 6 hours old.

Closest report is Addis Ababa Bole International Airport, 441.8 nm (818.3 km) E.

2022/11/14 15:00 (retrieved 2 years ago)

HAAB 141500Z 09008KT 9999 FEW025 20/09Q1026 NOSIG

Closest aviation forecast (TAF) to Ayod Airstrip

Forecast is more than 12 hours old.

Closest forecast is Hawassa International Airport, 420.6 nm (779.0 km) E.

2023/02/22 18:20 (retrieved 1 year ago)

TAF HALA 221530Z 2218/2324 VRB04KT 9999 FEW070